Time;durP1;ratioP1;P1;durP2;ratioP2;P2;SDS_P1;SDS_P2;PMS_P1;PMS_P2;Temp;Humidity;BMP_temperature;BMP_pressure;BME280_temperature;BME280_humidity;BME280_pressure;Samples;Min_cycle;Max_cycle;Signal;HPM_P1;HPM_P2
2024/03/29 00:00:42;;;;;;;5.25;3.60;;;5.90;99.90;;;;;;5066030;28;20448;-41
2024/03/29 00:03:09;;;;;;;7.45;3.78;;;5.90;99.90;;;;;;5068454;28;20067;-48
2024/03/29 00:05:36;;;;;;;5.03;3.90;;;5.90;99.90;;;;;;5066772;28;20402;-41
2024/03/29 00:08:03;;;;;;;4.93;3.58;;;5.90;99.90;;;;;;5067518;28;20041;-46
2024/03/29 00:10:29;;;;;;;5.13;3.45;;;6.00;99.90;;;;;;5067276;28;20416;-44
2024/03/29 00:12:55;;;;;;;6.38;3.80;;;6.00;99.90;;;;;;5067668;28;20071;-45
2024/03/29 00:15:21;;;;;;;5.05;3.55;;;5.90;99.90;;;;;;5067169;28;20110;-42
2024/03/29 00:17:47;;;;;;;5.05;3.97;;;5.90;99.90;;;;;;5066535;28;20437;-44
2024/03/29 00:20:13;;;;;;;5.55;3.40;;;5.90;99.90;;;;;;5066047;28;20056;-43
2024/03/29 00:22:39;;;;;;;5.72;3.80;;;5.90;99.90;;;;;;5066683;28;20032;-44
2024/03/29 00:25:06;;;;;;;5.20;3.55;;;5.90;99.90;;;;;;5066988;28;20193;-45
2024/03/29 00:27:32;;;;;;;4.90;3.53;;;5.90;99.90;;;;;;5066531;28;20045;-43
2024/03/29 00:29:58;;;;;;;4.28;3.25;;;5.90;99.90;;;;;;5066622;28;20064;-44
2024/03/29 00:32:25;;;;;;;5.63;3.60;;;5.90;99.90;;;;;;5071167;28;20044;-46
2024/03/29 00:34:54;;;;;;;5.28;3.50;;;5.90;99.90;;;;;;5071078;28;20102;-48
2024/03/29 00:37:20;;;;;;;6.00;3.10;;;5.90;99.90;;;;;;5067070;28;20052;-44
2024/03/29 00:39:46;;;;;;;6.78;3.60;;;5.90;99.90;;;;;;5066098;28;20041;-45
2024/03/29 00:42:15;;;;;;;5.15;3.55;;;5.90;99.90;;;;;;5066598;28;20039;-44
2024/03/29 00:44:41;;;;;;;7.15;3.33;;;5.90;99.90;;;;;;5066739;28;20044;-41
2024/03/29 00:47:08;;;;;;;6.10;3.13;;;5.80;99.90;;;;;;5067352;28;20071;-47
2024/03/29 00:49:34;;;;;;;5.65;3.55;;;5.80;99.90;;;;;;5063683;28;20122;-45
2024/03/29 00:52:01;;;;;;;6.68;3.53;;;5.80;99.90;;;;;;5081758;28;20052;-41
2024/03/29 00:54:27;;;;;;;5.93;3.03;;;5.80;99.90;;;;;;5066117;28;20048;-42
2024/03/29 00:56:53;;;;;;;4.55;3.10;;;5.80;99.90;;;;;;5066951;28;20104;-41
2024/03/29 00:59:20;;;;;;;4.97;3.17;;;5.70;99.90;;;;;;5069932;28;20429;-39
2024/03/29 01:01:46;;;;;;;5.65;3.17;;;5.70;99.90;;;;;;5065895;28;20044;-49
2024/03/29 01:04:12;;;;;;;4.35;2.97;;;5.70;99.90;;;;;;5066296;28;20047;-43
2024/03/29 01:06:40;;;;;;;8.35;3.42;;;5.80;99.90;;;;;;5066548;28;20048;-47
2024/03/29 01:09:06;;;;;;;6.22;3.60;;;5.90;99.90;;;;;;5067395;28;20345;-44
2024/03/29 01:11:32;;;;;;;4.13;3.10;;;5.90;99.90;;;;;;5067285;28;20053;-45
2024/03/29 01:13:58;;;;;;;4.47;3.00;;;5.90;99.90;;;;;;5066473;28;20428;-46
2024/03/29 01:16:25;;;;;;;5.18;3.05;;;6.00;99.90;;;;;;5064528;28;20055;-44
2024/03/29 01:18:52;;;;;;;5.03;3.42;;;6.00;99.90;;;;;;5066234;28;20516;-44
2024/03/29 01:21:18;;;;;;;4.65;2.90;;;6.00;99.90;;;;;;5060430;28;20463;-44
2024/03/29 01:23:44;;;;;;;4.00;2.88;;;6.10;99.90;;;;;;5067313;28;20044;-44
2024/03/29 01:26:14;;;;;;;5.57;3.78;;;6.10;99.90;;;;;;5057402;28;20086;-41
2024/03/29 01:28:40;;;;;;;5.18;3.15;;;6.20;99.90;;;;;;5065965;28;20427;-45
2024/03/29 01:31:06;;;;;;;4.95;2.72;;;6.20;99.90;;;;;;5059445;28;20510;-45
2024/03/29 01:33:36;;;;;;;3.60;2.70;;;6.30;99.90;;;;;;5060486;28;20044;-44
2024/03/29 01:36:02;;;;;;;5.85;2.95;;;6.30;99.90;;;;;;5063750;28;20506;-45
2024/03/29 01:38:28;;;;;;;4.13;2.83;;;6.30;99.90;;;;;;5064352;28;20044;-47
2024/03/29 01:40:54;;;;;;;4.53;3.08;;;6.30;99.90;;;;;;5060748;28;20129;-43
2024/03/29 01:43:20;;;;;;;3.85;2.72;;;6.40;99.90;;;;;;5065261;28;20052;-49
2024/03/29 01:45:51;;;;;;;4.05;3.00;;;6.60;99.90;;;;;;5063959;28;20072;-46
2024/03/29 01:48:18;;;;;;;4.97;3.38;;;6.60;99.90;;;;;;5065186;28;20095;-40
2024/03/29 01:50:45;;;;;;;6.00;3.50;;;6.60;99.90;;;;;;5061494;28;20590;-48
2024/03/29 01:53:12;;;;;;;4.18;3.00;;;6.50;99.90;;;;;;5064470;28;20485;-44
2024/03/29 01:55:38;;;;;;;5.63;3.10;;;6.50;99.90;;;;;;5064047;28;20048;-44
2024/03/29 01:58:05;;;;;;;4.47;2.90;;;6.50;99.90;;;;;;5068207;28;20062;-43
2024/03/29 02:00:31;;;;;;;4.90;3.10;;;6.50;99.90;;;;;;5072381;28;20036;-44
2024/03/29 02:03:02;;;;;;;5.60;3.33;;;6.60;99.90;;;;;;5054603;28;20060;-42
2024/03/29 02:05:28;;;;;;;4.65;3.40;;;6.60;99.90;;;;;;5071893;28;20113;-47
2024/03/29 02:07:55;;;;;;;3.90;2.97;;;6.50;99.90;;;;;;5065999;28;20037;-45
2024/03/29 02:10:21;;;;;;;5.00;3.35;;;6.60;99.90;;;;;;5065968;28;20044;-44
2024/03/29 02:12:46;;;;;;;4.18;3.00;;;6.60;99.90;;;;;;5065111;28;20040;-46
2024/03/29 02:15:16;;;;;;;7.05;3.03;;;6.60;99.90;;;;;;5085304;28;20083;-45
2024/03/29 02:17:42;;;;;;;4.57;3.03;;;6.60;99.90;;;;;;5069074;28;20429;-46
2024/03/29 02:20:09;;;;;;;5.10;3.28;;;6.60;99.90;;;;;;5071887;28;20464;-41
2024/03/29 02:22:45;;;;;;;4.38;3.20;;;6.70;99.90;;;;;;5071149;28;20041;-47
2024/03/29 02:25:12;;;;;;;6.00;3.20;;;6.60;99.90;;;;;;5070757;28;20066;-45
2024/03/29 02:27:39;;;;;;;4.78;3.13;;;6.70;99.90;;;;;;5068461;28;20067;-46
2024/03/29 02:30:06;;;;;;;5.53;3.58;;;6.70;99.90;;;;;;5070059;28;20044;-41
2024/03/29 02:32:32;;;;;;;4.28;3.10;;;6.80;99.90;;;;;;5068682;28;20098;-45
2024/03/29 02:34:57;;;;;;;4.35;3.10;;;6.90;99.90;;;;;;5069664;28;20113;-45
2024/03/29 02:37:23;;;;;;;5.30;3.00;;;6.90;99.90;;;;;;5067910;28;20476;-44
2024/03/29 02:39:49;;;;;;;3.70;2.90;;;6.90;99.90;;;;;;5069564;28;20143;-45
2024/03/29 02:42:16;;;;;;;5.05;3.03;;;6.90;99.90;;;;;;5068842;28;20037;-45
2024/03/29 02:44:42;;;;;;;4.30;3.20;;;6.90;99.90;;;;;;5064717;28;20044;-46
2024/03/29 02:47:08;;;;;;;5.38;3.00;;;6.80;99.90;;;;;;5068861;28;20040;-48
2024/03/29 02:49:34;;;;;;;4.03;3.00;;;6.90;99.90;;;;;;5068034;28;20045;-44
2024/03/29 02:52:00;;;;;;;5.25;3.15;;;6.90;99.90;;;;;;5063826;28;20036;-45
2024/03/29 02:54:26;;;;;;;4.15;3.15;;;7.00;99.90;;;;;;5067964;28;20060;-44
2024/03/29 02:56:52;;;;;;;3.50;2.80;;;7.00;99.90;;;;;;5068310;28;20404;-47
2024/03/29 02:59:18;;;;;;;4.30;3.20;;;7.00;99.90;;;;;;5073189;28;20052;-45
2024/03/29 03:01:44;;;;;;;3.60;3.10;;;7.00;99.90;;;;;;5070489;28;20108;-47
2024/03/29 03:04:10;;;;;;;4.55;3.00;;;7.00;99.90;;;;;;5068433;28;20112;-45
2024/03/29 03:06:36;;;;;;;4.43;2.78;;;7.00;99.90;;;;;;5072403;28;20053;-46
2024/03/29 03:11:46;;;;;;;3.40;3.03;;;7.00;99.90;;;;;;5084751;28;20093;-44
2024/03/29 03:14:12;;;;;;;3.20;2.90;;;7.10;99.90;;;;;;5072081;28;20330;-47
2024/03/29 03:16:38;;;;;;;4.78;3.30;;;7.10;99.90;;;;;;5071047;28;20105;-45
2024/03/29 03:19:04;;;;;;;4.18;3.03;;;7.10;99.90;;;;;;5068606;28;20090;-42
2024/03/29 03:21:30;;;;;;;4.55;2.88;;;7.20;99.90;;;;;;5068331;28;20041;-48
2024/03/29 03:23:56;;;;;;;4.57;3.00;;;7.20;99.90;;;;;;5067435;28;20051;-45
2024/03/29 03:26:22;;;;;;;4.40;3.05;;;7.30;99.90;;;;;;5069106;28;20037;-43
2024/03/29 03:28:48;;;;;;;7.07;3.20;;;7.20;99.90;;;;;;5062676;28;20144;-46
2024/03/29 03:31:14;;;;;;;4.57;3.08;;;7.20;99.90;;;;;;5067484;28;20118;-48
2024/03/29 03:33:40;;;;;;;4.13;3.05;;;7.20;99.90;;;;;;5065057;28;20058;-46
2024/03/29 03:36:06;;;;;;;3.67;3.15;;;7.30;99.90;;;;;;5068366;28;20728;-45
2024/03/29 03:38:34;;;;;;;3.75;2.95;;;7.30;99.90;;;;;;5068122;28;20045;-46
2024/03/29 03:41:00;;;;;;;3.70;3.13;;;7.30;99.90;;;;;;5060354;28;20310;-42
2024/03/29 03:43:26;;;;;;;4.63;3.10;;;7.30;99.90;;;;;;5061550;28;20060;-42
2024/03/29 03:45:52;;;;;;;6.78;3.30;;;7.30;99.90;;;;;;5055104;28;20059;-46
2024/03/29 03:48:18;;;;;;;4.18;3.30;;;7.30;99.90;;;;;;5064102;28;20049;-45
2024/03/29 03:50:44;;;;;;;4.35;3.28;;;7.40;99.90;;;;;;5066730;28;20041;-42
2024/03/29 03:53:10;;;;;;;4.13;3.47;;;7.30;99.90;;;;;;5066003;28;20210;-43
2024/03/29 03:55:37;;;;;;;4.57;3.30;;;7.40;99.90;;;;;;5067812;28;20059;-44
2024/03/29 03:58:03;;;;;;;4.30;3.60;;;7.40;99.90;;;;;;5067707;28;20498;-42
2024/03/29 04:00:29;;;;;;;7.20;3.75;;;7.40;99.90;;;;;;5067431;28;20055;-45
2024/03/29 04:02:56;;;;;;;3.83;3.20;;;7.40;99.90;;;;;;5061673;28;20128;-43
2024/03/29 04:05:22;;;;;;;4.15;3.45;;;7.40;99.90;;;;;;5068055;28;20509;-45
2024/03/29 04:07:48;;;;;;;5.25;3.60;;;7.40;99.90;;;;;;5056619;28;20041;-41
2024/03/29 04:10:14;;;;;;;4.50;3.70;;;7.40;99.90;;;;;;5048419;28;20052;-41
2024/03/29 04:12:41;;;;;;;3.65;3.25;;;7.40;99.90;;;;;;5066082;28;20052;-47
2024/03/29 04:15:07;;;;;;;4.50;3.15;;;7.40;99.90;;;;;;5066431;28;20048;-46
2024/03/29 04:17:34;;;;;;;3.90;3.15;;;7.40;99.90;;;;;;5067230;28;20036;-46
2024/03/29 04:20:00;;;;;;;4.47;3.10;;;7.40;99.90;;;;;;5071914;28;20119;-46
2024/03/29 04:22:29;;;;;;;4.20;3.20;;;7.40;99.90;;;;;;5065892;28;20047;-48
2024/03/29 04:24:55;;;;;;;4.55;2.90;;;7.50;99.90;;;;;;5066944;28;20067;-45
2024/03/29 04:27:21;;;;;;;4.63;3.30;;;7.50;99.90;;;;;;5069777;28;20159;-45
2024/03/29 04:29:51;;;;;;;4.95;3.20;;;7.50;99.90;;;;;;5065637;28;20040;-43
2024/03/29 04:32:17;;;;;;;4.57;3.15;;;7.60;99.90;;;;;;5064552;28;20048;-43
2024/03/29 04:34:45;;;;;;;4.75;3.00;;;7.50;99.90;;;;;;5065047;28;20079;-43
2024/03/29 04:37:11;;;;;;;3.75;3.00;;;7.60;99.90;;;;;;5065053;28;20120;-45
2024/03/29 04:39:37;;;;;;;4.35;3.30;;;7.60;99.90;;;;;;5063060;28;20056;-44
2024/03/29 04:42:04;;;;;;;4.40;3.00;;;7.60;99.90;;;;;;5065247;28;20045;-48
2024/03/29 04:44:29;;;;;;;4.13;3.25;;;7.60;99.90;;;;;;5064125;28;20048;-44
2024/03/29 04:46:55;;;;;;;3.38;3.08;;;7.60;99.90;;;;;;5062704;28;20114;-44
2024/03/29 04:49:32;;;;;;;3.53;3.10;;;7.60;99.90;;;;;;5066021;28;20068;-45
2024/03/29 04:51:58;;;;;;;3.38;3.08;;;7.60;99.90;;;;;;5064526;28;20071;-43
2024/03/29 04:54:24;;;;;;;5.70;3.35;;;7.70;99.90;;;;;;5067237;28;20114;-43
2024/03/29 04:56:50;;;;;;;3.80;3.40;;;7.70;99.90;;;;;;5050648;28;20048;-44
2024/03/29 04:59:17;;;;;;;3.30;3.00;;;7.70;99.90;;;;;;5065534;28;20180;-44
2024/03/29 05:01:44;;;;;;;3.72;3.10;;;7.70;99.90;;;;;;5047943;28;20047;-42
2024/03/29 05:04:10;;;;;;;3.72;3.20;;;7.70;99.90;;;;;;5065501;28;20040;-42
2024/03/29 05:06:36;;;;;;;4.10;3.60;;;7.80;99.90;;;;;;5064675;28;20045;-45
2024/03/29 05:09:02;;;;;;;4.60;3.83;;;7.70;99.90;;;;;;5065587;28;20047;-49
2024/03/29 05:11:29;;;;;;;3.08;2.78;;;7.70;99.90;;;;;;5065092;28;20217;-44
2024/03/29 05:13:55;;;;;;;3.58;3.08;;;7.80;99.90;;;;;;5066346;28;20414;-46
2024/03/29 05:16:21;;;;;;;3.72;2.97;;;7.80;99.90;;;;;;5066248;28;20063;-45
2024/03/29 05:18:47;;;;;;;4.80;3.15;;;7.80;99.90;;;;;;5066306;28;20037;-48
2024/03/29 05:21:13;;;;;;;3.90;3.17;;;7.80;99.90;;;;;;5066282;28;20044;-47
2024/03/29 05:23:39;;;;;;;4.40;3.22;;;7.90;99.90;;;;;;5067935;28;20032;-48
2024/03/29 05:26:06;;;;;;;3.30;2.72;;;7.80;99.90;;;;;;5067876;28;20397;-43
2024/03/29 05:28:32;;;;;;;9.73;3.05;;;7.70;99.90;;;;;;5061484;28;20078;-46
2024/03/29 05:31:13;;;;;;;3.58;2.90;;;7.70;99.90;;;;;;5067721;28;20306;-45
2024/03/29 05:33:40;;;;;;;3.45;2.83;;;7.80;99.90;;;;;;5064310;28;20052;-41
2024/03/29 05:36:08;;;;;;;3.17;2.88;;;7.80;99.90;;;;;;5069496;28;20049;-47
2024/03/29 05:38:34;;;;;;;3.22;2.92;;;7.90;99.90;;;;;;5067296;28;20167;-43
2024/03/29 05:41:00;;;;;;;3.95;3.17;;;8.00;99.90;;;;;;5066518;28;20040;-46
2024/03/29 05:43:26;;;;;;;3.28;2.97;;;8.00;99.90;;;;;;5066380;28;20037;-46
2024/03/29 05:45:52;;;;;;;3.38;3.08;;;8.00;99.90;;;;;;5066242;28;20039;-46
2024/03/29 05:48:19;;;;;;;3.20;2.90;;;8.00;99.90;;;;;;5065288;28;20048;-43
2024/03/29 05:50:45;;;;;;;3.65;3.00;;;8.00;99.90;;;;;;5066185;28;20045;-46
2024/03/29 05:53:11;;;;;;;3.33;3.03;;;8.00;99.90;;;;;;5049288;28;20048;-46
2024/03/29 05:55:37;;;;;;;4.65;3.58;;;8.00;99.90;;;;;;5066883;28;20051;-42
2024/03/29 05:58:05;;;;;;;5.22;3.97;;;8.10;99.90;;;;;;5065539;28;20070;-41
2024/03/29 06:00:35;;;;;;;5.45;4.28;;;8.10;99.90;;;;;;5063563;28;20032;-45
2024/03/29 06:03:02;;;;;;;4.88;3.97;;;8.10;99.90;;;;;;5051712;28;20068;-45
2024/03/29 06:05:28;;;;;;;3.83;3.33;;;8.20;99.90;;;;;;5059627;28;20049;-44
2024/03/29 06:07:54;;;;;;;4.05;3.33;;;8.20;99.90;;;;;;5065943;28;20161;-44
2024/03/29 06:10:21;;;;;;;3.20;2.90;;;8.30;99.90;;;;;;5066165;28;20462;-41
2024/03/29 06:12:47;;;;;;;3.90;3.20;;;8.30;99.90;;;;;;5065858;28;20064;-45
2024/03/29 06:17:57;;;;;;;3.50;3.20;;;8.50;99.90;;;;;;5060121;28;20025;-46
2024/03/29 06:20:24;;;;;;;4.03;3.20;;;8.50;99.90;;;;;;5064707;28;20047;-47
2024/03/29 06:22:50;;;;;;;3.78;3.22;;;8.50;99.90;;;;;;5063879;28;20045;-43
2024/03/29 06:25:16;;;;;;;3.30;3.00;;;8.50;99.90;;;;;;5064404;28;20082;-41
2024/03/29 06:27:47;;;;;;;3.92;3.30;;;8.60;99.90;;;;;;5064982;28;20532;-45
2024/03/29 06:30:15;;;;;;;4.00;3.20;;;8.70;99.90;;;;;;5066133;28;20130;-45
2024/03/29 06:32:41;;;;;;;3.60;3.20;;;8.70;99.90;;;;;;5064916;28;20044;-45
2024/03/29 06:35:08;;;;;;;3.47;3.17;;;8.70;99.90;;;;;;5066171;28;20041;-42
2024/03/29 06:37:34;;;;;;;3.25;2.90;;;8.80;99.90;;;;;;5065599;28;20051;-42
2024/03/29 06:40:00;;;;;;;4.03;3.33;;;8.80;99.90;;;;;;5064061;28;20477;-44
2024/03/29 06:42:26;;;;;;;3.83;3.28;;;8.90;99.90;;;;;;5066042;28;20041;-46
2024/03/29 06:44:54;;;;;;;3.22;2.90;;;8.90;99.90;;;;;;5068352;28;20093;-44
2024/03/29 06:47:20;;;;;;;4.07;3.45;;;9.00;99.90;;;;;;5071185;28;20044;-46
2024/03/29 06:49:46;;;;;;;3.97;3.22;;;9.00;99.90;;;;;;5070500;28;20132;-46
2024/03/29 06:52:12;;;;;;;7.68;5.22;;;9.00;99.90;;;;;;5068323;28;20040;-48
2024/03/29 06:54:38;;;;;;;4.43;3.60;;;9.00;99.90;;;;;;5070235;28;20048;-47
2024/03/29 06:57:04;;;;;;;4.97;3.78;;;9.00;99.90;;;;;;5068779;28;20586;-46
2024/03/29 06:59:30;;;;;;;3.92;3.45;;;9.10;99.90;;;;;;5069178;28;20040;-46
2024/03/29 07:01:56;;;;;;;3.90;3.50;;;9.20;99.90;;;;;;5068637;28;20726;-46
2024/03/29 07:04:23;;;;;;;3.60;3.30;;;9.30;99.90;;;;;;5067294;28;20040;-46
2024/03/29 07:06:51;;;;;;;4.40;3.20;;;9.40;99.90;;;;;;5065675;28;20181;-42
2024/03/29 07:09:18;;;;;;;3.50;3.20;;;9.60;99.90;;;;;;5068537;28;20048;-45
2024/03/29 07:11:46;;;;;;;4.15;3.45;;;9.60;99.90;;;;;;5068401;28;20049;-46
2024/03/29 07:14:16;;;;;;;5.15;3.70;;;9.80;99.90;;;;;;5068117;28;20055;-44
2024/03/29 07:16:43;;;;;;;4.00;3.60;;;10.00;99.90;;;;;;5069222;28;20044;-43
2024/03/29 07:19:12;;;;;;;4.03;3.60;;;10.10;99.90;;;;;;5067911;28;20047;-46
2024/03/29 07:21:39;;;;;;;3.53;3.15;;;10.30;99.90;;;;;;5069147;28;20505;-42
2024/03/29 07:24:06;;;;;;;3.50;3.20;;;10.60;99.90;;;;;;5066952;28;20475;-46
2024/03/29 07:26:32;;;;;;;4.15;3.85;;;10.60;99.90;;;;;;5070240;28;20105;-42
2024/03/29 07:28:58;;;;;;;4.93;4.05;;;10.70;99.90;;;;;;5071614;28;20059;-42
2024/03/29 07:31:24;;;;;;;4.45;3.40;;;10.80;99.90;;;;;;5071619;28;20040;-45
2024/03/29 07:33:50;;;;;;;5.65;3.15;;;10.90;99.90;;;;;;5070969;28;20040;-43
2024/03/29 07:36:17;;;;;;;4.05;3.53;;;10.90;99.90;;;;;;5068925;28;20068;-46
2024/03/29 07:38:46;;;;;;;4.50;3.53;;;11.00;99.90;;;;;;5067881;28;20055;-45
2024/03/29 07:41:13;;;;;;;4.10;3.58;;;11.20;99.90;;;;;;5070033;28;20032;-47
2024/03/29 07:43:40;;;;;;;6.03;3.75;;;11.50;99.90;;;;;;5069220;28;20540;-41
2024/03/29 07:46:10;;;;;;;3.92;3.55;;;11.60;99.90;;;;;;5069079;28;20040;-43
2024/03/29 07:48:37;;;;;;;3.88;3.50;;;11.80;99.90;;;;;;5067150;28;20457;-42
2024/03/29 07:51:03;;;;;;;3.92;3.60;;;11.70;99.90;;;;;;5068915;28;20044;-45
2024/03/29 07:53:29;;;;;;;4.78;3.80;;;11.80;99.90;;;;;;5068765;28;20412;-42
2024/03/29 07:55:55;;;;;;;4.55;3.90;;;11.80;99.90;;;;;;5052276;28;20044;-44
2024/03/29 07:58:21;;;;;;;4.20;3.70;;;11.70;99.90;;;;;;5067722;28;20067;-43
2024/03/29 08:00:47;;;;;;;4.10;3.70;;;11.70;99.90;;;;;;5067961;28;20032;-43
2024/03/29 08:03:13;;;;;;;3.88;3.53;;;11.90;99.90;;;;;;5067373;28;20147;-43
2024/03/29 08:05:40;;;;;;;6.60;4.05;;;12.10;99.90;;;;;;5063816;28;20040;-45
2024/03/29 08:08:06;;;;;;;4.22;3.40;;;12.30;99.90;;;;;;5068862;28;20056;-45
2024/03/29 08:10:32;;;;;;;3.88;3.53;;;12.40;99.90;;;;;;5069580;28;20468;-42
2024/03/29 08:13:00;;;;;;;4.30;3.90;;;12.50;99.90;;;;;;5067201;28;20512;-44
2024/03/29 08:15:27;;;;;;;5.32;3.65;;;12.50;99.90;;;;;;5068627;28;20041;-44
2024/03/29 08:17:53;;;;;;;4.10;3.70;;;12.60;99.90;;;;;;5067981;28;20074;-43
2024/03/29 08:20:19;;;;;;;6.50;4.68;;;12.90;99.90;;;;;;5070117;28;20082;-44
2024/03/29 08:22:45;;;;;;;6.40;5.53;;;13.00;99.90;;;;;;5070134;28;20116;-47
2024/03/29 08:25:11;;;;;;;5.22;4.68;;;13.30;99.90;;;;;;5068445;28;20036;-46
2024/03/29 08:27:37;;;;;;;5.28;4.32;;;13.60;99.90;;;;;;5070100;28;20064;-43
2024/03/29 08:30:03;;;;;;;5.65;5.05;;;13.70;99.90;;;;;;5070208;28;20067;-43
2024/03/29 08:32:29;;;;;;;4.40;4.00;;;13.80;99.90;;;;;;5068290;28;20056;-45
2024/03/29 08:34:56;;;;;;;4.82;4.32;;;13.70;99.90;;;;;;5069984;28;20105;-45
2024/03/29 08:37:22;;;;;;;4.78;4.30;;;13.80;99.90;;;;;;5069374;28;20048;-48
2024/03/29 08:39:48;;;;;;;5.10;4.20;;;13.60;99.90;;;;;;5068747;28;20036;-43
2024/03/29 08:42:14;;;;;;;4.45;4.05;;;13.50;99.90;;;;;;5069088;28;20409;-44
2024/03/29 08:44:40;;;;;;;4.20;3.80;;;13.40;99.90;;;;;;5070622;28;20060;-42
2024/03/29 08:47:06;;;;;;;4.22;3.83;;;13.30;99.90;;;;;;5068806;28;20398;-47
2024/03/29 08:49:32;;;;;;;4.40;3.90;;;13.20;99.90;;;;;;5068977;28;20048;-45
2024/03/29 08:52:00;;;;;;;5.18;4.18;;;13.00;99.90;;;;;;5067789;28;20513;-44
2024/03/29 08:54:27;;;;;;;4.40;4.00;;;12.80;99.90;;;;;;5067901;28;20052;-46
2024/03/29 08:56:53;;;;;;;6.18;4.85;;;12.60;99.90;;;;;;5066171;28;20106;-46
2024/03/29 08:59:19;;;;;;;5.35;4.40;;;12.50;99.90;;;;;;5068668;28;20192;-44
2024/03/29 09:01:49;;;;;;;4.70;4.20;;;12.40;99.90;;;;;;5068192;28;22464;-44
2024/03/29 09:04:15;;;;;;;6.50;4.30;;;12.20;99.90;;;;;;5067323;28;20044;-43
2024/03/29 09:06:42;;;;;;;4.78;4.32;;;12.20;99.90;;;;;;5066228;28;20077;-45
2024/03/29 09:09:09;;;;;;;4.80;3.80;;;12.00;99.90;;;;;;5067764;28;20540;-43
2024/03/29 09:11:36;;;;;;;4.22;3.50;;;11.80;99.90;;;;;;5069554;28;20066;-46
2024/03/29 09:14:04;;;;;;;4.35;3.95;;;11.60;99.90;;;;;;5067116;28;20044;-43
2024/03/29 09:16:30;;;;;;;4.68;3.85;;;11.40;99.90;;;;;;5069093;28;20048;-45
2024/03/29 09:18:56;;;;;;;5.75;4.30;;;11.30;99.90;;;;;;5076304;28;20061;-45
2024/03/29 09:21:22;;;;;;;4.25;3.83;;;11.10;99.90;;;;;;5067676;28;20066;-46
2024/03/29 09:23:50;;;;;;;4.93;3.50;;;11.00;99.90;;;;;;5067183;28;20206;-43
2024/03/29 09:26:16;;;;;;;4.10;3.50;;;10.90;99.90;;;;;;5062581;28;20047;-46
2024/03/29 09:28:42;;;;;;;4.50;3.50;;;10.90;99.90;;;;;;5066974;28;20072;-48
2024/03/29 09:31:09;;;;;;;5.05;3.92;;;10.90;99.90;;;;;;5066105;28;20112;-44
2024/03/29 09:33:35;;;;;;;8.70;5.07;;;10.80;99.90;;;;;;5067042;28;20036;-47
2024/03/29 09:36:01;;;;;;;7.25;5.15;;;10.80;99.90;;;;;;5067312;28;20067;-43
2024/03/29 09:38:27;;;;;;;7.53;3.88;;;10.80;99.90;;;;;;5065897;28;20033;-41
2024/03/29 09:41:15;;;;;;;4.57;3.63;;;10.90;99.90;;;;;;5067407;28;20147;-44
2024/03/29 09:43:44;;;;;;;5.60;4.00;;;10.90;99.90;;;;;;5062551;28;20036;-44
2024/03/29 09:46:11;;;;;;;6.75;4.00;;;11.00;99.90;;;;;;5066731;28;20053;-46
2024/03/29 09:48:37;;;;;;;7.30;3.40;;;11.00;99.90;;;;;;5067054;28;20513;-43
2024/03/29 09:51:06;;;;;;;4.70;3.17;;;11.20;99.90;;;;;;5065120;28;20044;-43
2024/03/29 09:53:38;;;;;;;4.57;3.17;;;11.50;99.90;;;;;;5065760;28;20048;-45
2024/03/29 09:56:05;;;;;;;4.13;3.33;;;11.70;99.90;;;;;;5066287;28;20521;-41
2024/03/29 09:58:32;;;;;;;5.60;3.20;;;11.90;99.90;;;;;;5067030;28;20097;-44
2024/03/29 10:00:59;;;;;;;4.82;3.42;;;12.10;99.90;;;;;;5071355;28;20048;-44
2024/03/29 10:03:29;;;;;;;4.88;3.88;;;12.30;99.90;;;;;;5071119;28;20072;-44
2024/03/29 10:05:59;;;;;;;6.55;4.10;;;12.40;99.90;;;;;;5062168;28;20078;-44
2024/03/29 10:08:30;;;;;;;3.95;3.33;;;12.60;99.90;;;;;;5067125;28;20059;-43
2024/03/29 10:10:57;;;;;;;4.40;3.60;;;12.80;99.90;;;;;;5063500;28;20056;-47
2024/03/29 10:13:24;;;;;;;7.63;4.10;;;12.70;99.90;;;;;;5067256;28;20044;-48
2024/03/29 10:15:53;;;;;;;7.15;4.60;;;12.80;99.90;;;;;;5067638;28;20044;-45
2024/03/29 10:18:23;;;;;;;5.47;3.95;;;12.90;99.90;;;;;;5066164;28;20060;-42
2024/03/29 10:21:07;;;;;;;5.22;3.92;;;13.00;99.90;;;;;;5066730;28;20037;-47
2024/03/29 10:23:35;;;;;;;4.55;3.67;;;13.10;99.90;;;;;;5071678;28;20044;-46
2024/03/29 10:26:02;;;;;;;5.13;3.72;;;13.00;99.90;;;;;;5069950;28;20037;-46
2024/03/29 10:28:33;;;;;;;6.47;3.10;;;12.90;99.90;;;;;;5071142;28;20539;-43
2024/03/29 10:31:00;;;;;;;5.10;3.83;;;12.80;99.90;;;;;;5071235;28;20482;-42
2024/03/29 10:33:30;;;;;;;7.97;4.28;;;12.60;99.90;;;;;;5071059;28;20044;-41
2024/03/29 10:35:58;;;;;;;7.38;4.10;;;12.70;99.90;;;;;;5065853;28;20040;-48
2024/03/29 10:38:26;;;;;;;5.95;3.40;;;13.00;99.90;;;;;;5070042;28;20086;-44
2024/03/29 10:40:53;;;;;;;4.55;3.35;;;13.00;99.90;;;;;;5071847;28;20406;-46
2024/03/29 10:43:20;;;;;;;5.00;3.60;;;13.30;99.90;;;;;;5071006;28;20048;-47
2024/03/29 10:45:58;;;;;;;8.68;6.32;;;13.50;99.90;;;;;;5070805;28;20056;-45
2024/03/29 10:48:31;;;;;;;5.80;4.40;;;13.70;99.90;;;;;;5069177;28;20041;-44
2024/03/29 10:50:58;;;;;;;5.05;4.10;;;13.70;99.90;;;;;;5070591;28;20505;-47
2024/03/29 10:53:26;;;;;;;6.32;3.45;;;13.70;99.90;;;;;;5070102;28;20101;-44
2024/03/29 10:55:58;;;;;;;6.85;3.70;;;13.60;99.90;;;;;;5070518;28;20044;-41
2024/03/29 10:58:29;;;;;;;4.40;3.42;;;13.40;99.90;;;;;;5070273;28;20056;-43
2024/03/29 11:00:58;;;;;;;6.88;4.60;;;13.30;99.90;;;;;;5064787;28;20045;-45
2024/03/29 11:03:40;;;;;;;7.20;4.40;;;13.30;99.90;;;;;;5075358;28;20049;-44
2024/03/29 11:06:07;;;;;;;6.40;4.97;;;13.10;99.90;;;;;;5069431;28;20414;-44
2024/03/29 11:08:37;;;;;;;7.05;4.60;;;13.30;99.90;;;;;;5069651;28;20502;-44
2024/03/29 11:11:09;;;;;;;6.20;3.83;;;13.20;99.90;;;;;;5069959;28;20036;-42
2024/03/29 11:13:47;;;;;;;7.10;3.75;;;13.00;99.90;;;;;;5070326;28;20102;-45
2024/03/29 11:16:18;;;;;;;4.90;3.80;;;12.80;99.90;;;;;;5069190;28;20051;-44
2024/03/29 11:18:44;;;;;;;8.07;4.10;;;12.70;99.90;;;;;;5071845;28;20489;-45
2024/03/29 11:21:12;;;;;;;5.18;3.42;;;12.70;99.90;;;;;;5070657;28;20047;-48
2024/03/29 11:23:39;;;;;;;4.78;3.13;;;12.60;99.90;;;;;;5071878;28;20058;-45
2024/03/29 11:26:06;;;;;;;5.95;3.65;;;12.40;99.90;;;;;;5071450;28;20140;-46
2024/03/29 11:28:34;;;;;;;6.15;3.42;;;12.20;99.90;;;;;;5070823;28;20048;-48
2024/03/29 11:31:05;;;;;;;6.13;4.25;;;12.20;99.90;;;;;;5068283;28;20055;-43
2024/03/29 11:33:44;;;;;;;6.93;4.03;;;12.30;99.90;;;;;;5069979;28;20048;-45
2024/03/29 11:36:23;;;;;;;6.25;4.65;;;12.40;99.90;;;;;;5073360;28;20220;-45
2024/03/29 11:38:52;;;;;;;6.07;3.70;;;12.60;99.90;;;;;;5066496;28;20044;-45
2024/03/29 11:41:23;;;;;;;4.63;3.30;;;12.60;99.90;;;;;;5070138;28;20044;-44
2024/03/29 11:43:53;;;;;;;8.73;4.65;;;12.90;99.90;;;;;;5068924;28;20128;-48
2024/03/29 11:46:20;;;;;;;7.38;4.65;;;13.00;99.90;;;;;;5071095;28;20070;-47
2024/03/29 11:48:49;;;;;;;6.00;3.95;;;13.30;99.90;;;;;;5069882;28;20526;-44
2024/03/29 11:51:18;;;;;;;6.82;4.30;;;13.50;99.90;;;;;;5070540;28;20140;-50
2024/03/29 11:53:44;;;;;;;5.38;3.83;;;13.50;99.90;;;;;;5067582;28;20127;-43
2024/03/29 11:56:14;;;;;;;5.47;3.90;;;13.60;99.90;;;;;;5070061;28;20048;-47
2024/03/29 11:58:41;;;;;;;6.93;4.78;;;13.60;99.90;;;;;;5069742;28;20101;-42
2024/03/29 12:01:10;;;;;;;5.45;4.07;;;13.80;99.90;;;;;;5065634;28;20040;-45
2024/03/29 12:03:39;;;;;;;5.00;3.60;;;13.90;99.90;;;;;;5070032;28;20090;-47
2024/03/29 12:06:06;;;;;;;4.18;3.58;;;13.80;99.90;;;;;;5068422;28;20529;-44
2024/03/29 12:08:34;;;;;;;5.78;3.92;;;13.80;99.90;;;;;;5067814;28;20045;-43
2024/03/29 12:11:02;;;;;;;6.53;4.13;;;13.70;99.90;;;;;;5068074;28;20056;-45
2024/03/29 12:13:28;;;;;;;6.65;4.75;;;13.80;99.90;;;;;;5073756;28;20044;-46
2024/03/29 12:15:55;;;;;;;7.30;5.00;;;13.80;99.90;;;;;;5070981;28;20070;-44
2024/03/29 12:18:22;;;;;;;7.50;4.93;;;13.90;99.90;;;;;;5068638;28;20036;-43
2024/03/29 12:20:49;;;;;;;8.80;6.00;;;14.10;99.90;;;;;;5068101;28;20040;-44
2024/03/29 12:23:17;;;;;;;10.93;6.03;;;14.30;99.90;;;;;;5070640;28;20057;-47
2024/03/29 12:25:43;;;;;;;14.05;9.52;;;14.50;99.90;;;;;;5071565;28;20040;-45
2024/03/29 12:28:11;;;;;;;7.68;5.57;;;15.00;99.90;;;;;;5074460;28;20122;-44
2024/03/29 12:30:40;;;;;;;7.63;5.25;;;15.50;99.90;;;;;;5072557;28;20501;-45
2024/03/29 12:33:09;;;;;;;7.15;4.95;;;16.10;99.90;;;;;;5068562;28;20052;-46
2024/03/29 12:35:36;;;;;;;7.45;5.03;;;16.70;99.90;;;;;;5071545;28;20405;-46
2024/03/29 12:38:03;;;;;;;7.55;5.60;;;17.20;99.90;;;;;;5070041;28;20056;-45
2024/03/29 12:40:35;;;;;;;8.80;5.85;;;17.70;99.90;;;;;;5068896;28;20504;-44
2024/03/29 12:43:05;;;;;;;7.22;5.63;;;18.20;99.90;;;;;;5069180;28;20047;-46
2024/03/29 12:45:31;;;;;;;5.90;4.93;;;18.90;99.90;;;;;;5069617;28;20051;-45
2024/03/29 12:47:58;;;;;;;6.85;5.40;;;19.90;99.90;;;;;;5067972;28;20048;-43
2024/03/29 12:50:32;;;;;;;7.05;5.22;;;21.00;99.90;;;;;;5068295;28;20036;-45
2024/03/29 12:53:00;;;;;;;6.50;5.40;;;21.90;99.90;;;;;;5063655;28;20048;-45
2024/03/29 12:55:30;;;;;;;5.38;4.68;;;22.80;99.90;;;;;;5067626;28;20055;-46
2024/03/29 12:57:56;;;;;;;8.82;5.35;;;23.50;99.90;;;;;;5063651;28;20040;-45